createdAt,value
2022-08-03T00:03:35.029Z,2.33
2022-08-03T00:08:40.215Z,2.07
2022-08-03T00:13:43.688Z,2.60
2022-08-03T00:18:45.598Z,2.17
2022-08-03T00:23:51.446Z,2.37
2022-08-03T00:28:55.930Z,2.80
2022-08-03T00:34:03.127Z,1.80
2022-08-03T00:39:05.961Z,2.47
2022-08-03T00:49:11.498Z,2.30
2022-08-03T00:54:14.320Z,2.50
2022-08-03T00:59:20.634Z,2.10
2022-08-03T01:04:23.205Z,2.50
2022-08-03T01:09:37.683Z,2.63
2022-08-03T01:14:46.207Z,2.63
2022-08-03T01:19:54.534Z,2.60
2022-08-03T01:25:03.195Z,2.50
2022-08-03T01:30:08.356Z,2.40
2022-08-03T01:35:14.421Z,2.33
2022-08-03T01:40:17.888Z,2.50
2022-08-03T01:45:22.833Z,2.50
2022-08-03T01:50:28.229Z,2.50
2022-08-03T01:55:32.922Z,2.80
2022-08-03T02:00:38.750Z,2.80
2022-08-03T02:05:42.003Z,2.30
2022-08-03T02:10:46.073Z,1.83
2022-08-03T02:15:49.958Z,2.50
2022-08-03T02:20:52.575Z,2.73
2022-08-03T02:25:59.932Z,2.40
2022-08-03T02:31:11.969Z,2.17
2022-08-03T02:36:16.197Z,2.70
2022-08-03T02:41:23.153Z,2.13
2022-08-03T02:46:32.433Z,2.80
2022-08-03T02:51:36.924Z,2.60
2022-08-03T02:56:40.383Z,2.40
2022-08-03T03:01:45.074Z,2.40
2022-08-03T03:06:47.935Z,2.63
2022-08-03T03:11:52.344Z,2.50
2022-08-03T03:16:57.625Z,2.50
2022-08-03T03:22:02.361Z,2.43
2022-08-03T03:27:05.546Z,2.60
2022-08-03T03:32:09.392Z,2.50
2022-08-03T03:37:11.501Z,2.33
2022-08-03T03:42:14.056Z,2.60
2022-08-03T03:47:17.981Z,2.57
2022-08-03T03:52:35.120Z,2.67
2022-08-03T03:57:37.224Z,2.60
2022-08-03T04:02:40.834Z,2.47
2022-08-03T04:07:52.143Z,2.37
2022-08-03T04:12:56.458Z,2.30
2022-08-03T04:18:01.710Z,2.27
2022-08-03T04:23:05.430Z,3.43
2022-08-03T04:28:31.386Z,2.63
2022-08-03T04:33:38.787Z,2.33
2022-08-03T04:38:53.049Z,2.80
2022-08-03T04:43:57.675Z,2.77
2022-08-03T04:49:01.497Z,2.50
2022-08-03T04:54:03.480Z,2.33
2022-08-03T04:59:05.153Z,2.23
2022-08-03T05:04:08.253Z,2.50
2022-08-03T05:09:09.979Z,1.98
2022-08-03T05:14:11.757Z,1.85
2022-08-03T05:19:14.843Z,1.70
2022-08-03T05:24:17.181Z,1.90
2022-08-03T05:29:19.067Z,1.50
2022-08-03T05:34:22.597Z,1.60
2022-08-03T05:39:24.689Z,1.60
2022-08-03T05:44:26.872Z,1.63
2022-08-03T05:49:30.393Z,1.88
2022-08-03T05:54:56.170Z,1.75
2022-08-03T05:59:58.347Z,1.42
2022-08-03T06:05:02.471Z,1.50
2022-08-03T06:10:36.897Z,1.63
2022-08-03T06:15:28.101Z,1.58
2022-08-03T06:20:31.648Z,1.60
2022-08-03T06:25:33.899Z,1.27
2022-08-03T06:30:36.389Z,1.40
2022-08-03T06:35:42.455Z,1.70
2022-08-03T06:40:46.808Z,1.70
2022-08-03T06:45:53.027Z,1.30
2022-08-03T06:50:56.435Z,1.50
2022-08-03T06:55:58.739Z,1.20
2022-08-03T07:01:01.100Z,1.60
2022-08-03T07:06:04.640Z,1.30
2022-08-03T07:11:06.897Z,1.50
2022-08-03T07:16:08.944Z,1.20
2022-08-03T07:21:12.439Z,1.40
2022-08-03T07:26:14.918Z,1.38
2022-08-03T07:31:17.093Z,1.52
2022-08-03T07:36:20.809Z,1.52
2022-08-03T07:41:22.846Z,1.20
2022-08-03T07:46:24.888Z,1.40
2022-08-03T07:51:30.396Z,1.20
2022-08-03T07:56:32.611Z,1.48
2022-08-03T08:01:34.782Z,1.30
2022-08-03T08:06:38.260Z,1.20
2022-08-03T08:11:41.592Z,1.27
2022-08-03T08:16:43.588Z,1.38
2022-08-03T08:21:53.813Z,1.35
2022-08-03T08:27:05.362Z,1.42
2022-08-03T08:32:07.413Z,1.30
2022-08-03T08:37:10.936Z,1.70
2022-08-03T08:42:13.178Z,1.42
2022-08-03T08:47:15.597Z,1.15
2022-08-03T08:52:24.969Z,1.73
2022-08-03T08:57:42.459Z,1.30
2022-08-03T09:02:46.773Z,1.13
2022-08-03T09:07:50.772Z,1.40
2022-08-03T09:12:53.442Z,1.20
2022-08-03T09:17:58.709Z,1.40
2022-08-03T09:23:14.022Z,1.60
2022-08-03T09:28:59.894Z,1.23
2022-08-03T09:34:01.646Z,1.35
2022-08-03T09:39:07.263Z,1.20
2022-08-03T09:44:09.368Z,1.15
2022-08-03T09:49:27.309Z,1.20
2022-08-03T09:54:31.843Z,1.00
2022-08-03T09:59:34.704Z,1.33
2022-08-03T10:04:47.624Z,1.40
2022-08-03T10:10:30.576Z,1.10
2022-08-03T10:16:22.592Z,1.05
2022-08-03T10:20:49.884Z,2.00
2022-08-03T10:25:58.839Z,1.48
2022-08-03T10:31:02.580Z,1.10
2022-08-03T10:36:07.238Z,1.30
2022-08-03T10:41:11.347Z,1.27
2022-08-03T10:46:16.070Z,1.13
2022-08-03T10:51:20.366Z,1.10
2022-08-03T10:56:49.700Z,1.48
2022-08-03T11:01:58.766Z,1.20
2022-08-03T11:07:21.134Z,1.30
2022-08-03T11:12:30.457Z,1.30
2022-08-03T11:17:46.321Z,1.30
2022-08-03T11:22:56.982Z,1.40
2022-08-03T11:28:27.676Z,1.23
2022-08-03T11:33:31.174Z,1.20
2022-08-03T11:38:33.307Z,1.50
2022-08-03T11:43:47.106Z,1.40
2022-08-03T11:48:51.393Z,1.40
2022-08-03T11:53:55.261Z,1.25
2022-08-03T11:59:17.952Z,1.27
2022-08-03T12:04:21.562Z,1.20
2022-08-03T12:09:23.615Z,1.30
2022-08-03T12:14:48.576Z,1.23
2022-08-03T12:19:50.511Z,1.17
2022-08-03T12:24:52.514Z,1.30
2022-08-03T12:29:59.028Z,1.10
2022-08-03T12:35:02.295Z,1.10
2022-08-03T12:40:10.071Z,1.08
2022-08-03T12:45:21.172Z,1.40
2022-08-03T12:50:31.351Z,1.30
2022-08-03T12:55:56.513Z,1.50
2022-08-03T13:00:58.331Z,1.30
2022-08-03T13:06:00.336Z,1.20
2022-08-03T13:11:20.920Z,1.88
2022-08-03T13:16:24.717Z,1.20
2022-08-03T13:21:26.783Z,1.10
2022-08-03T13:26:28.859Z,1.23
2022-08-03T13:31:32.485Z,1.20
2022-08-03T13:36:59.220Z,1.40
2022-08-03T13:41:57.357Z,1.20
2022-08-03T13:47:00.469Z,1.40
2022-08-03T13:52:02.770Z,1.42
2022-08-03T13:58:04.730Z,1.02
2022-08-03T14:02:28.949Z,1.55
2022-08-03T14:07:31.192Z,1.52
2022-08-03T14:12:33.230Z,1.40
2022-08-03T14:17:42.364Z,1.40
2022-08-03T14:22:52.276Z,1.30
2022-08-03T14:27:54.361Z,1.52
2022-08-03T14:33:00.703Z,1.50
2022-08-03T14:38:03.645Z,1.45
2022-08-03T14:43:05.804Z,1.60
2022-08-03T14:50:29.532Z,1.40
2022-08-03T14:53:32.429Z,1.02
2022-08-03T14:58:34.494Z,1.50
2022-08-03T15:03:37.739Z,2.15
2022-08-03T15:08:39.887Z,1.42
2022-08-03T15:13:41.699Z,1.17
2022-08-03T15:18:45.253Z,1.20
2022-08-03T15:23:47.384Z,1.25
2022-08-03T15:28:49.705Z,1.35
2022-08-03T15:33:53.483Z,1.15
2022-08-03T15:38:55.796Z,1.60
2022-08-03T15:43:57.919Z,1.30
2022-08-03T15:49:01.456Z,1.20
2022-08-03T15:54:03.252Z,1.42
2022-08-03T15:59:12.199Z,1.27
2022-08-03T16:04:17.029Z,1.40
2022-08-03T16:09:24.262Z,1.33
2022-08-03T16:14:51.831Z,1.42
2022-08-03T16:19:56.597Z,1.20
2022-08-03T16:25:00.099Z,1.20
2022-08-03T16:30:02.141Z,1.00
2022-08-03T16:35:06.478Z,1.50
2022-08-03T16:40:19.347Z,1.30
2022-08-03T16:45:22.262Z,1.27
2022-08-03T16:50:25.823Z,1.20
2022-08-03T16:55:43.216Z,1.67
2022-08-03T17:00:51.009Z,1.40
2022-08-03T17:05:54.466Z,0.95
2022-08-03T17:11:01.822Z,1.33
2022-08-03T17:16:05.714Z,1.35
2022-08-03T17:21:12.036Z,1.52
2022-08-03T17:26:21.164Z,1.38
2022-08-03T17:31:31.725Z,1.40
2022-08-03T17:37:02.659Z,1.40
2022-08-03T17:41:59.254Z,1.90
2022-08-03T17:52:31.302Z,1.77
2022-08-03T17:58:01.448Z,1.70
2022-08-03T18:03:15.370Z,0.93
2022-08-03T18:08:24.801Z,1.10
2022-08-03T18:13:30.835Z,1.08
2022-08-03T18:18:36.913Z,1.35
2022-08-03T18:23:42.898Z,1.35
2022-08-03T18:28:47.670Z,2.10
2022-08-03T18:34:32.534Z,1.63
2022-08-03T18:39:19.656Z,1.58
2022-08-03T18:44:53.390Z,1.90
2022-08-03T18:49:56.033Z,1.40
2022-08-03T18:55:13.977Z,1.60
2022-08-03T19:00:42.442Z,2.08
2022-08-03T19:06:02.678Z,1.60
2022-08-03T19:11:17.763Z,2.38
2022-08-03T19:16:27.586Z,1.63
2022-08-03T19:21:30.867Z,1.90
2022-08-03T19:26:36.052Z,1.80
2022-08-03T19:31:39.477Z,2.08
2022-08-03T19:37:03.635Z,1.92
2022-08-03T19:42:23.209Z,1.85
2022-08-03T19:47:36.312Z,1.98
2022-08-03T19:52:40.261Z,1.80
2022-08-03T19:57:49.254Z,2.15
2022-08-03T20:02:51.248Z,2.30
2022-08-03T20:07:53.248Z,3.08
2022-08-03T20:13:00.019Z,2.85
2022-08-03T20:18:01.928Z,2.15
2022-08-03T20:23:07.256Z,1.88
2022-08-03T20:28:13.921Z,1.40
2022-08-03T20:33:48.770Z,2.40
2022-08-03T20:38:53.148Z,2.35
2022-08-03T20:43:59.453Z,1.95
2022-08-03T20:49:03.946Z,2.72
2022-08-03T20:59:36.908Z,2.20
2022-08-03T21:04:50.224Z,2.20
2022-08-03T21:09:57.061Z,2.33
2022-08-03T21:13:07.723Z,2.63
2022-08-03T21:15:04.689Z,2.00
2022-08-03T21:20:09.133Z,2.20
2022-08-03T21:25:15.017Z,2.28
2022-08-03T21:30:20.556Z,2.95
2022-08-03T21:35:23.914Z,2.35
2022-08-03T21:40:25.714Z,2.10
2022-08-03T21:45:29.379Z,2.60
2022-08-03T21:50:35.916Z,2.17
2022-08-03T21:55:38.908Z,2.38
2022-08-03T22:00:43.180Z,2.08
2022-08-03T22:05:45.581Z,1.92
2022-08-03T22:10:50.780Z,1.92
2022-08-03T22:15:54.419Z,2.17
2022-08-03T22:20:57.534Z,2.10
2022-08-03T22:26:03.700Z,2.22
2022-08-03T22:31:31.025Z,2.37
2022-08-03T22:36:30.764Z,1.80
2022-08-03T22:41:33.038Z,2.10
2022-08-03T22:46:38.009Z,2.10
2022-08-03T22:51:40.831Z,2.30
2022-08-03T22:56:46.719Z,2.27
2022-08-03T23:01:52.639Z,1.73
2022-08-03T23:06:57.463Z,2.73
2022-08-03T23:12:01.404Z,1.97
2022-08-03T23:17:05.336Z,2.17
2022-08-03T23:22:08.170Z,2.10
2022-08-03T23:27:31.635Z,2.20
2022-08-03T23:32:35.997Z,2.63
2022-08-03T23:38:04.760Z,2.27
2022-08-03T23:43:02.458Z,2.50
2022-08-03T23:48:07.810Z,2.13
2022-08-03T23:53:18.518Z,2.30
2022-08-03T23:58:37.298Z,2.57
